createdAt,value
2023-04-16T00:00:32.367Z,98177.31
2023-04-16T00:02:59.568Z,98180.83
2023-04-16T00:05:27.594Z,98180.27
2023-04-16T00:07:54.565Z,98183.63
2023-04-16T00:10:21.582Z,98187.50
2023-04-16T00:12:48.534Z,98186.49
2023-04-16T00:15:15.464Z,98186.76
2023-04-16T00:17:42.455Z,98189.11
2023-04-16T00:20:10.601Z,98189.09
2023-04-16T00:22:38.046Z,98192.63
2023-04-16T00:25:05.811Z,98190.90
2023-04-16T00:27:32.775Z,98196.30
2023-04-16T00:29:59.813Z,98193.94
2023-04-16T00:32:26.865Z,98200.10
2023-04-16T00:34:54.083Z,98197.57
2023-04-16T00:37:21.119Z,98205.23
2023-04-16T00:39:48.207Z,98212.99
2023-04-16T00:42:15.245Z,98218.88
2023-04-16T00:44:42.285Z,98217.98
2023-04-16T00:47:09.646Z,98225.60
2023-04-16T00:49:37.163Z,98223.55
2023-04-16T00:52:04.699Z,98225.71
2023-04-16T00:54:32.755Z,98228.95
2023-04-16T00:57:00.445Z,98229.20
2023-04-16T00:59:29.320Z,98232.96
2023-04-16T01:01:56.433Z,98232.23
2023-04-16T01:04:24.140Z,98236.31
2023-04-16T01:06:51.719Z,98237.17
2023-04-16T01:09:18.954Z,98239.72
2023-04-16T01:11:46.202Z,98246.73
2023-04-16T01:14:13.251Z,98243.59
2023-04-16T01:16:40.100Z,98244.20
2023-04-16T01:19:07.405Z,98245.33
2023-04-16T01:21:34.740Z,98246.45
2023-04-16T01:24:05.459Z,98246.42
2023-04-16T01:26:32.699Z,98246.41
2023-04-16T01:29:00.113Z,98246.94
2023-04-16T01:31:27.121Z,98247.63
2023-04-16T01:33:54.013Z,98248.42
2023-04-16T01:36:20.963Z,98248.53
2023-04-16T01:38:48.136Z,98248.31
2023-04-16T01:41:15.248Z,98247.39
2023-04-16T01:43:42.927Z,98247.79
2023-04-16T01:46:15.727Z,98246.55
2023-04-16T01:48:43.292Z,98245.25
2023-04-16T01:51:10.600Z,98247.51
2023-04-16T01:53:37.898Z,98245.66
2023-04-16T01:56:05.921Z,98250.53
2023-04-16T01:58:33.621Z,98250.30
2023-04-16T02:01:00.990Z,98250.05
2023-04-16T02:03:28.470Z,98250.31
2023-04-16T02:05:55.537Z,98247.94
2023-04-16T02:08:22.894Z,98242.95
2023-04-16T02:10:51.305Z,98244.13
2023-04-16T02:13:18.312Z,98238.39
2023-04-16T02:15:47.905Z,98239.54
2023-04-16T02:18:15.173Z,98238.45
2023-04-16T02:20:47.123Z,98240.00
2023-04-16T02:23:17.452Z,98242.98
2023-04-16T02:25:46.892Z,98241.67
2023-04-16T02:28:16.208Z,98239.88
2023-04-16T02:30:58.062Z,98241.84
2023-04-16T02:33:36.854Z,98241.23
2023-04-16T02:36:04.002Z,98243.92
2023-04-16T02:38:31.423Z,98244.54
2023-04-16T02:40:59.737Z,98249.33
2023-04-16T02:43:26.933Z,98251.13
2023-04-16T02:45:54.012Z,98251.90
2023-04-16T02:48:20.965Z,98254.05
2023-04-16T02:50:47.976Z,98256.29
2023-04-16T02:53:15.097Z,98261.40
2023-04-16T02:55:42.210Z,98269.15
2023-04-16T02:58:09.420Z,98275.56
2023-04-16T03:00:36.395Z,98275.34
2023-04-16T03:03:03.762Z,98279.38
2023-04-16T03:05:30.615Z,98278.34
2023-04-16T03:07:57.641Z,98282.58
2023-04-16T03:10:25.424Z,98284.25
2023-04-16T03:12:52.401Z,98285.32
2023-04-16T03:15:19.417Z,98287.87
2023-04-16T03:17:54.364Z,98292.08
2023-04-16T03:20:25.525Z,98294.73
2023-04-16T03:23:02.077Z,98298.68
2023-04-16T03:25:35.918Z,98300.63
2023-04-16T03:28:04.132Z,98307.75
2023-04-16T03:30:31.866Z,98303.29
2023-04-16T03:32:58.868Z,98305.97
2023-04-16T03:35:26.294Z,98307.27
2023-04-16T03:37:53.237Z,98309.34
2023-04-16T03:40:20.481Z,98313.82
2023-04-16T03:42:47.352Z,98318.48
2023-04-16T03:45:15.580Z,98324.70
2023-04-16T03:47:42.469Z,98327.91
2023-04-16T03:50:10.284Z,98325.70
2023-04-16T03:52:37.241Z,98331.66
2023-04-16T03:55:04.676Z,98333.77
2023-04-16T03:57:31.756Z,98335.84
2023-04-16T03:59:58.769Z,98342.33
2023-04-16T04:02:26.320Z,98342.98
2023-04-16T04:04:53.623Z,98338.36
2023-04-16T04:07:20.946Z,98342.11
2023-04-16T04:09:47.871Z,98344.33
2023-04-16T04:12:14.912Z,98349.19
2023-04-16T04:14:42.060Z,98347.86
2023-04-16T04:17:09.440Z,98353.16
2023-04-16T04:19:38.826Z,98356.38
2023-04-16T04:22:07.200Z,98361.45
2023-04-16T04:24:34.162Z,98365.56
2023-04-16T04:27:02.444Z,98368.30
2023-04-16T04:29:29.681Z,98375.94
2023-04-16T04:31:56.744Z,98375.66
2023-04-16T04:34:23.749Z,98381.70
2023-04-16T04:36:51.048Z,98386.13
2023-04-16T04:39:18.161Z,98387.16
2023-04-16T04:41:44.953Z,98390.34
2023-04-16T04:44:11.932Z,98398.14
2023-04-16T04:46:38.870Z,98400.73
2023-04-16T04:49:06.152Z,98399.62
2023-04-16T04:51:33.520Z,98403.92
2023-04-16T04:54:00.725Z,98401.64
2023-04-16T04:56:27.568Z,98404.02
2023-04-16T04:58:55.240Z,98402.38
2023-04-16T05:01:22.198Z,98404.30
2023-04-16T05:03:49.107Z,98406.48
2023-04-16T05:06:16.984Z,98408.36
2023-04-16T05:08:43.938Z,98411.88
2023-04-16T05:11:11.065Z,98419.53
2023-04-16T05:13:37.907Z,98426.11
2023-04-16T05:16:05.380Z,98426.60
2023-04-16T05:18:33.860Z,98426.59
2023-04-16T05:21:01.197Z,98428.31
2023-04-16T05:23:28.342Z,98432.18
2023-04-16T05:25:55.115Z,98429.41
2023-04-16T05:28:22.039Z,98431.69
2023-04-16T05:30:48.912Z,98434.73
2023-04-16T05:33:16.134Z,98435.82
2023-04-16T05:35:43.778Z,98437.63
2023-04-16T05:38:11.906Z,98441.33
2023-04-16T05:40:38.912Z,98441.50
2023-04-16T05:43:05.880Z,98444.68
2023-04-16T05:45:33.790Z,98449.33
2023-04-16T05:48:01.283Z,98451.77
2023-04-16T05:50:28.187Z,98452.51
2023-04-16T05:52:55.441Z,98452.79
2023-04-16T05:55:22.902Z,98458.74
2023-04-16T05:57:50.085Z,98456.20
2023-04-16T06:00:18.001Z,98461.38
2023-04-16T06:02:45.945Z,98458.34
2023-04-16T06:05:15.174Z,98461.65
2023-04-16T06:07:42.666Z,98458.31
2023-04-16T06:10:10.412Z,98462.05
2023-04-16T06:12:38.078Z,98467.13
2023-04-16T06:15:06.209Z,98472.90
2023-04-16T06:17:33.319Z,98473.80
2023-04-16T06:20:00.612Z,98477.86
2023-04-16T06:22:27.670Z,98480.92
2023-04-16T06:24:55.400Z,98477.90
2023-04-16T06:27:22.388Z,98477.90
2023-04-16T06:29:49.621Z,98476.42
2023-04-16T06:32:18.457Z,98479.02
2023-04-16T06:34:45.655Z,98481.16
2023-04-16T06:37:13.129Z,98480.95
2023-04-16T06:39:40.393Z,98484.41
2023-04-16T06:42:07.846Z,98482.70
2023-04-16T06:44:37.232Z,98484.11
2023-04-16T06:47:04.326Z,98484.07
2023-04-16T06:49:31.303Z,98487.44
2023-04-16T06:51:58.272Z,98482.84
2023-04-16T06:54:25.089Z,98481.70
2023-04-16T06:56:51.946Z,98481.61
2023-04-16T06:59:18.976Z,98478.33
2023-04-16T07:01:45.864Z,98482.13
2023-04-16T07:04:13.101Z,98487.61
2023-04-16T07:06:40.420Z,98485.48
2023-04-16T07:09:07.339Z,98491.52
2023-04-16T07:11:34.830Z,98490.36
2023-04-16T07:14:02.006Z,98488.98
2023-04-16T07:16:28.960Z,98487.39
2023-04-16T07:18:56.054Z,98480.17
2023-04-16T07:21:23.229Z,98478.30
2023-04-16T07:23:50.066Z,98484.11
2023-04-16T07:26:16.907Z,98484.83
2023-04-16T07:28:43.868Z,98488.70
2023-04-16T07:31:11.184Z,98494.17
2023-04-16T07:33:38.039Z,98499.14
2023-04-16T07:36:05.515Z,98502.67
2023-04-16T07:38:32.356Z,98499.94
2023-04-16T07:40:59.191Z,98504.43
2023-04-16T07:43:26.097Z,98509.92
2023-04-16T07:45:53.052Z,98514.79
2023-04-16T07:48:19.988Z,98518.80
2023-04-16T07:50:47.029Z,98520.11
2023-04-16T07:53:13.986Z,98522.70
2023-04-16T07:55:41.327Z,98523.69
2023-04-16T07:58:09.856Z,98527.10
2023-04-16T08:00:36.860Z,98529.85
2023-04-16T08:03:04.368Z,98530.88
2023-04-16T08:05:31.789Z,98535.13
2023-04-16T08:07:58.947Z,98532.30
2023-04-16T08:10:26.179Z,98534.27
2023-04-16T08:12:53.224Z,98534.63
2023-04-16T08:15:20.453Z,98533.86
2023-04-16T08:17:47.670Z,98535.27
2023-04-16T08:20:17.043Z,98534.16
2023-04-16T08:22:46.769Z,98532.86
2023-04-16T08:25:14.782Z,98529.72
2023-04-16T08:27:41.769Z,98528.85
2023-04-16T08:30:08.764Z,98529.34
2023-04-16T08:32:35.872Z,98525.70
2023-04-16T08:35:03.166Z,98522.47
2023-04-16T08:37:30.113Z,98523.01
2023-04-16T08:39:57.128Z,98523.59
2023-04-16T08:42:32.735Z,98523.02
2023-04-16T08:45:14.283Z,98524.84
2023-04-16T08:47:42.379Z,98527.82
2023-04-16T08:50:12.933Z,98535.59
2023-04-16T08:52:47.349Z,98534.00
2023-04-16T08:55:15.225Z,98534.34
2023-04-16T08:57:49.872Z,98535.52
2023-04-16T09:00:17.363Z,98539.40
2023-04-16T09:02:44.697Z,98541.02
2023-04-16T09:05:17.380Z,98540.20
2023-04-16T09:07:46.755Z,98547.28
2023-04-16T09:10:15.923Z,98547.73
2023-04-16T09:12:43.858Z,98545.51
2023-04-16T09:15:12.506Z,98547.14
2023-04-16T09:17:40.487Z,98543.41
2023-04-16T09:20:11.109Z,98544.45
2023-04-16T09:22:40.348Z,98541.48
2023-04-16T09:25:08.675Z,98544.41
2023-04-16T09:27:36.516Z,98543.91
2023-04-16T09:30:22.496Z,98545.08
2023-04-16T09:32:51.381Z,98544.88
2023-04-16T09:35:21.951Z,98549.20
2023-04-16T09:37:58.969Z,98550.30
2023-04-16T09:40:27.767Z,98553.57
2023-04-16T09:42:58.899Z,98551.60
2023-04-16T09:45:25.934Z,98549.88
2023-04-16T09:47:52.979Z,98556.10
2023-04-16T09:50:20.833Z,98551.02
2023-04-16T09:52:54.210Z,98551.45
2023-04-16T09:55:27.600Z,98553.60
2023-04-16T09:58:01.794Z,98554.86
2023-04-16T10:00:31.754Z,98554.86
2023-04-16T10:03:06.530Z,98555.40
2023-04-16T10:05:33.775Z,98559.52
2023-04-16T10:08:02.431Z,98562.75
2023-04-16T10:10:29.956Z,98567.36
2023-04-16T10:12:57.132Z,98562.52
2023-04-16T10:15:24.591Z,98562.34
2023-04-16T10:17:52.387Z,98562.10
2023-04-16T10:20:20.095Z,98564.59
2023-04-16T10:22:47.369Z,98571.10
2023-04-16T10:25:15.132Z,98568.39
2023-04-16T10:27:42.097Z,98565.52
2023-04-16T10:30:11.298Z,98568.35
2023-04-16T10:32:38.798Z,98565.75
2023-04-16T10:35:07.140Z,98565.89
2023-04-16T10:37:34.335Z,98569.55
2023-04-16T10:40:01.563Z,98569.51
2023-04-16T10:42:28.967Z,98576.05
2023-04-16T10:45:00.686Z,98575.04
2023-04-16T10:47:29.665Z,98574.84
2023-04-16T10:49:58.550Z,98574.00
2023-04-16T10:52:29.616Z,98573.47
2023-04-16T10:55:00.621Z,98576.23
2023-04-16T10:57:30.427Z,98571.80
2023-04-16T10:59:57.470Z,98574.70
2023-04-16T11:02:29.241Z,98576.77
2023-04-16T11:04:58.225Z,98571.36
2023-04-16T11:07:36.203Z,98576.63
2023-04-16T11:10:13.069Z,98578.94
2023-04-16T11:12:46.678Z,98580.17
2023-04-16T11:15:16.526Z,98581.65
2023-04-16T11:17:46.382Z,98578.13
2023-04-16T11:20:20.416Z,98580.00
2023-04-16T11:22:53.467Z,98576.75
2023-04-16T11:25:31.852Z,98577.83
2023-04-16T11:28:01.719Z,98580.77
2023-04-16T11:30:36.919Z,98578.25
2023-04-16T11:33:09.982Z,98581.80
2023-04-16T11:35:39.948Z,98580.89
2023-04-16T11:38:07.918Z,98580.58
2023-04-16T11:40:36.742Z,98580.64
2023-04-16T11:43:14.211Z,98579.97
2023-04-16T11:46:07.430Z,98578.33
2023-04-16T11:48:51.452Z,98574.02
2023-04-16T11:51:19.479Z,98571.30
2023-04-16T11:53:54.283Z,98569.77
2023-04-16T11:56:32.572Z,98571.12
2023-04-16T11:59:12.042Z,98572.29
2023-04-16T12:01:40.838Z,98572.63
2023-04-16T12:04:09.233Z,98575.02
2023-04-16T12:06:36.806Z,98569.34
2023-04-16T12:09:25.719Z,98568.90
2023-04-16T12:11:52.705Z,98577.45
2023-04-16T12:14:20.736Z,98574.04
2023-04-16T12:16:48.316Z,98570.38
2023-04-16T12:19:15.935Z,98572.11
2023-04-16T12:21:45.610Z,98569.45
2023-04-16T12:24:15.211Z,98573.79
2023-04-16T12:26:47.365Z,98573.40
2023-04-16T12:29:16.137Z,98568.03
2023-04-16T12:31:43.165Z,98565.02
2023-04-16T12:34:10.732Z,98562.01
2023-04-16T12:36:39.076Z,98562.81
2023-04-16T12:39:06.406Z,98559.03
2023-04-16T12:41:37.107Z,98559.69
2023-04-16T12:44:18.184Z,98556.14
2023-04-16T12:46:45.688Z,98549.59
2023-04-16T12:49:12.723Z,98552.58
2023-04-16T12:51:39.822Z,98551.14
2023-04-16T12:54:08.411Z,98550.08
2023-04-16T12:56:36.668Z,98556.59
2023-04-16T12:59:04.111Z,98548.32
2023-04-16T13:01:31.274Z,98549.70
2023-04-16T13:03:58.717Z,98544.96
2023-04-16T13:06:26.583Z,98543.14
2023-04-16T13:08:53.765Z,98543.97
2023-04-16T13:11:21.128Z,98543.45
2023-04-16T13:13:48.231Z,98545.23
2023-04-16T13:16:15.640Z,98547.20
2023-04-16T13:18:43.210Z,98553.26
2023-04-16T13:21:11.693Z,98550.20
2023-04-16T13:23:38.740Z,98552.14
2023-04-16T13:26:05.810Z,98550.15
2023-04-16T13:28:32.766Z,98555.84
2023-04-16T13:31:00.721Z,98548.22
2023-04-16T13:33:29.050Z,98544.34
2023-04-16T13:36:12.344Z,98544.02
2023-04-16T13:38:39.882Z,98542.18
2023-04-16T13:41:18.706Z,98543.98
2023-04-16T13:43:59.283Z,98547.17
2023-04-16T13:46:27.829Z,98541.08
2023-04-16T13:48:56.094Z,98544.45
2023-04-16T13:51:23.289Z,98543.91
2023-04-16T13:53:50.741Z,98539.33
2023-04-16T13:56:17.662Z,98540.95
2023-04-16T13:58:44.653Z,98538.44
2023-04-16T14:01:12.375Z,98536.32
2023-04-16T14:03:40.949Z,98542.77
2023-04-16T14:06:08.421Z,98546.31
2023-04-16T14:08:35.374Z,98543.02
2023-04-16T14:11:02.407Z,98543.88
2023-04-16T14:13:29.485Z,98541.04
2023-04-16T14:15:57.414Z,98542.41
2023-04-16T14:18:24.449Z,98546.40
2023-04-16T14:20:51.613Z,98547.86
2023-04-16T14:23:18.826Z,98548.15
2023-04-16T14:25:45.792Z,98546.48
2023-04-16T14:28:14.311Z,98548.06
2023-04-16T14:30:42.932Z,98550.00
2023-04-16T14:33:09.999Z,98553.59
2023-04-16T14:35:37.045Z,98549.16
2023-04-16T14:38:03.885Z,98552.48
2023-04-16T14:40:30.824Z,98552.12
2023-04-16T14:42:57.976Z,98548.77
2023-04-16T14:45:29.628Z,98544.27
2023-04-16T14:47:57.610Z,98542.42
2023-04-16T14:50:24.530Z,98540.00
2023-04-16T14:52:51.982Z,98540.42
2023-04-16T14:55:18.941Z,98542.73
2023-04-16T14:57:45.883Z,98543.26
2023-04-16T15:00:17.400Z,98548.52
2023-04-16T15:02:45.598Z,98546.00
2023-04-16T15:05:12.950Z,98546.37
2023-04-16T15:07:40.786Z,98550.06
2023-04-16T15:10:09.551Z,98551.61
2023-04-16T15:12:38.820Z,98551.02
2023-04-16T15:15:09.812Z,98547.38
2023-04-16T15:17:37.328Z,98555.20
2023-04-16T15:20:11.100Z,98552.69
2023-04-16T15:22:38.760Z,98554.41
2023-04-16T15:25:07.384Z,98552.05
2023-04-16T15:27:34.304Z,98554.13
2023-04-16T15:30:01.373Z,98557.02
2023-04-16T15:32:28.796Z,98554.70
2023-04-16T15:34:56.046Z,98558.16
2023-04-16T15:37:23.057Z,98557.33
2023-04-16T15:39:50.502Z,98557.51
2023-04-16T15:42:17.687Z,98555.41
2023-04-16T15:44:44.975Z,98553.71
2023-04-16T15:47:12.522Z,98558.17
2023-04-16T15:49:40.264Z,98556.43
2023-04-16T15:52:07.964Z,98562.79
2023-04-16T15:54:35.539Z,98562.55
2023-04-16T15:57:03.045Z,98560.69
2023-04-16T15:59:30.289Z,98555.58
2023-04-16T16:01:57.928Z,98553.80
2023-04-16T16:04:26.765Z,98560.81
2023-04-16T16:06:54.654Z,98561.02
2023-04-16T16:09:26.803Z,98567.11
2023-04-16T16:11:54.998Z,98568.16
2023-04-16T16:14:22.801Z,98569.88
2023-04-16T16:16:50.138Z,98574.58
2023-04-16T16:19:18.169Z,98575.60
2023-04-16T16:21:45.262Z,98577.85
2023-04-16T16:24:12.610Z,98578.05
2023-04-16T16:26:39.661Z,98579.62
2023-04-16T16:29:07.531Z,98576.40
2023-04-16T16:31:34.915Z,98576.98
2023-04-16T16:34:02.823Z,98578.30
2023-04-16T16:36:30.246Z,98578.27
2023-04-16T16:38:57.640Z,98582.22
2023-04-16T16:41:24.590Z,98584.00
2023-04-16T16:43:51.773Z,98583.88
2023-04-16T16:46:18.819Z,98586.42
2023-04-16T16:48:46.124Z,98591.55
2023-04-16T16:51:13.445Z,98590.45
2023-04-16T16:53:40.648Z,98594.48
2023-04-16T16:56:07.887Z,98595.52
2023-04-16T16:58:35.111Z,98596.08
2023-04-16T17:01:02.250Z,98601.17
2023-04-16T17:03:29.488Z,98602.86
2023-04-16T17:05:56.780Z,98610.83
2023-04-16T17:08:24.135Z,98608.45
2023-04-16T17:10:52.033Z,98608.33
2023-04-16T17:13:20.780Z,98613.67
2023-04-16T17:15:48.132Z,98616.74
2023-04-16T17:18:15.659Z,98617.98
2023-04-16T17:20:42.968Z,98619.75
2023-04-16T17:23:10.107Z,98622.90
2023-04-16T17:25:36.933Z,98621.44
2023-04-16T17:28:04.281Z,98625.48
2023-04-16T17:30:32.280Z,98624.33
2023-04-16T17:32:59.345Z,98626.42
2023-04-16T17:35:26.735Z,98629.84
2023-04-16T17:37:53.607Z,98634.61
2023-04-16T17:40:20.846Z,98635.21
2023-04-16T17:42:49.601Z,98639.46
2023-04-16T17:45:16.699Z,98641.83
2023-04-16T17:47:47.356Z,98644.50
2023-04-16T17:50:14.628Z,98642.79
2023-04-16T17:52:41.497Z,98646.88
2023-04-16T17:55:09.276Z,98648.17
2023-04-16T17:57:37.158Z,98649.71
2023-04-16T18:00:11.880Z,98647.83
2023-04-16T18:02:41.237Z,98653.27
2023-04-16T18:05:09.370Z,98658.63
2023-04-16T18:07:36.972Z,98655.52
2023-04-16T18:10:04.321Z,98657.81
2023-04-16T18:12:31.373Z,98664.08
2023-04-16T18:14:58.428Z,98667.81
2023-04-16T18:17:25.412Z,98666.27
2023-04-16T18:19:52.439Z,98675.23
2023-04-16T18:22:19.597Z,98672.79
2023-04-16T18:24:46.863Z,98677.86
2023-04-16T18:27:14.080Z,98675.61
2023-04-16T18:29:43.760Z,98678.77
2023-04-16T18:32:12.305Z,98680.30
2023-04-16T18:34:39.926Z,98684.09
2023-04-16T18:37:07.351Z,98687.63
2023-04-16T18:39:34.203Z,98684.08
2023-04-16T18:42:01.838Z,98685.86
2023-04-16T18:44:28.713Z,98692.23
2023-04-16T18:46:56.026Z,98691.13
2023-04-16T18:49:22.981Z,98691.94
2023-04-16T18:51:49.956Z,98695.56
2023-04-16T18:54:17.514Z,98692.88
2023-04-16T18:56:45.402Z,98693.55
2023-04-16T18:59:13.046Z,98696.76
2023-04-16T19:01:40.154Z,98695.08
2023-04-16T19:04:07.491Z,98699.27
2023-04-16T19:06:35.113Z,98700.14
2023-04-16T19:09:02.402Z,98702.48
2023-04-16T19:11:29.477Z,98699.70
2023-04-16T19:13:57.760Z,98705.02
2023-04-16T19:16:25.333Z,98703.27
2023-04-16T19:18:52.471Z,98702.70
2023-04-16T19:21:19.390Z,98703.77
2023-04-16T19:23:46.627Z,98701.63
2023-04-16T19:26:13.784Z,98705.81
2023-04-16T19:28:42.882Z,98706.45
2023-04-16T19:31:10.193Z,98706.58
2023-04-16T19:33:37.694Z,98700.88
2023-04-16T19:36:05.807Z,98704.28
2023-04-16T19:38:33.081Z,98704.34
2023-04-16T19:41:00.538Z,98702.17
2023-04-16T19:43:30.724Z,98704.42
2023-04-16T19:45:58.708Z,98700.04
2023-04-16T19:48:26.429Z,98701.05
2023-04-16T19:50:53.728Z,98701.90
2023-04-16T19:53:21.974Z,98701.89
2023-04-16T19:55:49.335Z,98700.14
2023-04-16T19:58:16.754Z,98699.92
2023-04-16T20:00:44.555Z,98701.55
2023-04-16T20:03:12.172Z,98700.68
2023-04-16T20:05:39.522Z,98701.73
2023-04-16T20:08:07.030Z,98704.09
2023-04-16T20:10:34.366Z,98705.74
2023-04-16T20:13:01.364Z,98700.26
2023-04-16T20:15:28.571Z,98698.98
2023-04-16T20:17:56.703Z,98700.23
2023-04-16T20:20:23.964Z,98698.40
2023-04-16T20:22:51.293Z,98699.77
2023-04-16T20:25:19.624Z,98700.42
2023-04-16T20:27:46.924Z,98706.60
2023-04-16T20:30:14.576Z,98706.59
2023-04-16T20:32:41.883Z,98704.32
2023-04-16T20:35:11.742Z,98705.61
2023-04-16T20:37:39.197Z,98700.22
2023-04-16T20:40:09.804Z,98699.41
2023-04-16T20:42:36.699Z,98693.84
2023-04-16T20:45:03.852Z,98699.31
2023-04-16T20:47:30.970Z,98696.70
2023-04-16T20:49:58.845Z,98692.20
2023-04-16T20:52:25.769Z,98694.42
2023-04-16T20:54:52.709Z,98692.55
2023-04-16T20:57:19.757Z,98692.87
2023-04-16T20:59:47.153Z,98692.83
2023-04-16T21:02:15.028Z,98689.26
2023-04-16T21:04:42.326Z,98689.84
2023-04-16T21:07:09.271Z,98690.52
2023-04-16T21:09:36.107Z,98693.77
2023-04-16T21:12:02.947Z,98694.96
2023-04-16T21:14:29.804Z,98690.56
2023-04-16T21:16:56.628Z,98691.80
2023-04-16T21:19:23.670Z,98695.69
2023-04-16T21:21:51.379Z,98694.08
2023-04-16T21:24:19.501Z,98695.13
2023-04-16T21:26:47.578Z,98689.14
2023-04-16T21:29:15.112Z,98692.17
2023-04-16T21:31:43.102Z,98688.02
2023-04-16T21:34:10.563Z,98683.77
2023-04-16T21:36:37.555Z,98683.88
2023-04-16T21:39:04.778Z,98685.80
2023-04-16T21:41:31.823Z,98685.42
2023-04-16T21:43:58.653Z,98687.09
2023-04-16T21:46:26.964Z,98687.80
2023-04-16T21:48:54.175Z,98686.96
2023-04-16T21:51:29.587Z,98685.53
2023-04-16T21:53:57.779Z,98683.85
2023-04-16T21:56:26.577Z,98685.79
2023-04-16T21:58:53.616Z,98683.66
2023-04-16T22:01:20.918Z,98684.26
2023-04-16T22:03:50.983Z,98690.88
2023-04-16T22:06:18.531Z,98688.55
2023-04-16T22:08:45.703Z,98689.18
2023-04-16T22:11:12.931Z,98688.63
2023-04-16T22:13:42.839Z,98688.16
2023-04-16T22:16:11.750Z,98692.90
2023-04-16T22:18:39.079Z,98692.08
2023-04-16T22:21:06.743Z,98697.11
2023-04-16T22:23:33.821Z,98691.21
2023-04-16T22:26:03.126Z,98697.38
2023-04-16T22:28:30.238Z,98692.16
2023-04-16T22:30:57.707Z,98694.91
2023-04-16T22:33:24.774Z,98698.62
2023-04-16T22:35:51.786Z,98696.71
2023-04-16T22:38:18.840Z,98694.56
2023-04-16T22:40:48.686Z,98689.11
2023-04-16T22:43:18.103Z,98686.27
2023-04-16T22:45:46.626Z,98688.45
2023-04-16T22:48:13.645Z,98691.19
2023-04-16T22:50:41.722Z,98693.89
2023-04-16T22:53:08.991Z,98687.61
2023-04-16T22:55:36.031Z,98691.66
2023-04-16T22:58:03.063Z,98692.63
2023-04-16T23:00:30.045Z,98690.82
2023-04-16T23:02:57.019Z,98689.86
2023-04-16T23:05:24.442Z,98689.29
2023-04-16T23:07:51.564Z,98687.75
2023-04-16T23:10:18.400Z,98689.23
2023-04-16T23:12:45.587Z,98693.81
2023-04-16T23:15:12.651Z,98693.86
2023-04-16T23:17:40.189Z,98690.87
2023-04-16T23:20:10.287Z,98691.92
2023-04-16T23:22:37.308Z,98692.18
2023-04-16T23:25:04.757Z,98689.76
2023-04-16T23:27:32.827Z,98689.23
2023-04-16T23:29:59.905Z,98688.72
2023-04-16T23:32:27.992Z,98684.25
2023-04-16T23:34:54.985Z,98683.48
2023-04-16T23:37:21.826Z,98684.81
2023-04-16T23:39:48.705Z,98676.78
2023-04-16T23:42:15.750Z,98685.10
2023-04-16T23:44:42.652Z,98685.77
2023-04-16T23:47:10.116Z,98683.73
2023-04-16T23:49:37.605Z,98681.88
2023-04-16T23:52:05.240Z,98683.86
2023-04-16T23:54:32.064Z,98683.56
2023-04-16T23:56:59.036Z,98678.80
2023-04-16T23:59:26.172Z,98676.44
